Terminal Aerodrome Forecast
Issued by NWS Newport/Morehead City, NC

Home | Current Version | Previous Version | Graphics & Text | Print | Product List | Glossary On
Versions: 1 2 3 4 5 6 7 8 9 10 11 12 13 14 15 16 17 18
000
FTUS42 KMHX 021139
TAFEWN
TAF
KEWN 021139Z 0212/0312 00000KT 3SM BR SCT002
      TEMPO 0212/0213 2SM BR BKN002
     FM021300 30005KT P6SM SCT050
     FM022200 18005KT P6SM BKN050=

USA.gov is the U.S. government's official web portal to all federal, state and local government web resources and services.